Time;durP1;ratioP1;P1;durP2;ratioP2;P2;SDS_P1;SDS_P2;PMS_P1;PMS_P2;Temp;Humidity;BMP_temperature;BMP_pressure;BME280_temperature;BME280_humidity;BME280_pressure;Samples;Min_cycle;Max_cycle;Signal;HPM_P1;HPM_P2
2020/12/12 00:00:44;;;;;;;13.30;8.60;;;3.30;99.90;;;;;;5068335;28;20044;-50
2020/12/12 00:03:11;;;;;;;19.13;10.55;;;3.30;99.90;;;;;;5071492;28;20044;-50
2020/12/12 00:05:38;;;;;;;20.77;12.13;;;3.30;99.90;;;;;;5073023;28;20049;-51
2020/12/12 00:08:05;;;;;;;19.65;10.95;;;3.30;99.90;;;;;;5071571;28;20505;-50
2020/12/12 00:10:31;;;;;;;17.33;10.73;;;3.30;99.90;;;;;;5068138;28;20051;-50
2020/12/12 00:12:58;;;;;;;19.67;11.02;;;3.40;99.90;;;;;;5057679;28;20053;-51
2020/12/12 00:15:25;;;;;;;16.40;8.73;;;3.40;99.90;;;;;;5067932;28;20057;-50
2020/12/12 00:17:51;;;;;;;14.65;8.13;;;3.40;99.90;;;;;;5071204;28;20048;-50
2020/12/12 00:20:18;;;;;;;12.95;10.02;;;3.50;99.90;;;;;;5068585;28;20091;-50
2020/12/12 00:22:45;;;;;;;16.40;10.00;;;3.50;99.90;;;;;;5070014;28;20048;-50
2020/12/12 00:25:11;;;;;;;23.17;10.90;;;3.50;99.90;;;;;;5070558;28;20048;-50
2020/12/12 00:27:38;;;;;;;15.50;10.63;;;3.40;99.90;;;;;;5067530;28;20056;-50
2020/12/12 00:30:05;;;;;;;17.13;11.85;;;3.30;99.90;;;;;;5072471;28;20049;-50
2020/12/12 00:32:32;;;;;;;15.88;10.38;;;3.30;99.90;;;;;;5068931;28;20044;-50
2020/12/12 00:34:58;;;;;;;18.42;12.50;;;3.30;99.90;;;;;;5073263;28;20052;-50
2020/12/12 00:37:25;;;;;;;19.77;11.57;;;3.30;99.90;;;;;;5065903;28;20147;-50
2020/12/12 00:39:52;;;;;;;16.40;10.52;;;3.30;99.90;;;;;;5071527;28;20051;-50
2020/12/12 00:42:18;;;;;;;13.88;9.43;;;3.30;99.90;;;;;;5068633;28;20040;-50
2020/12/12 00:44:45;;;;;;;16.83;10.15;;;3.40;99.90;;;;;;5066190;28;20052;-50
2020/12/12 00:47:14;;;;;;;13.25;9.43;;;3.40;99.90;;;;;;5070086;28;20469;-52
2020/12/12 00:49:40;;;;;;;19.30;9.40;;;3.40;99.90;;;;;;5071188;28;20528;-50
2020/12/12 00:52:07;;;;;;;16.23;10.27;;;3.40;99.90;;;;;;5068326;28;20452;-50
2020/12/12 00:54:36;;;;;;;18.55;11.32;;;3.40;99.90;;;;;;5068017;28;20063;-50
2020/12/12 00:57:03;;;;;;;11.57;7.95;;;3.40;99.90;;;;;;5068839;28;20496;-50
2020/12/12 00:59:29;;;;;;;12.57;7.63;;;3.40;99.90;;;;;;5068607;28;20047;-50
2020/12/12 01:01:56;;;;;;;11.70;7.53;;;3.50;99.90;;;;;;5070980;28;20049;-50
2020/12/12 01:04:23;;;;;;;14.68;8.70;;;3.40;99.90;;;;;;5067170;28;20045;-50
2020/12/12 01:06:50;;;;;;;15.32;10.82;;;3.50;99.90;;;;;;5063381;28;20045;-50
2020/12/12 01:09:17;;;;;;;15.85;7.25;;;3.50;99.90;;;;;;5067666;28;20473;-50
2020/12/12 01:11:44;;;;;;;16.17;8.68;;;3.50;99.90;;;;;;5068597;28;20049;-50
2020/12/12 01:14:10;;;;;;;13.32;8.80;;;3.50;99.90;;;;;;5075511;28;20385;-50
2020/12/12 01:16:37;;;;;;;15.30;7.45;;;3.50;99.90;;;;;;5074218;28;20489;-51
2020/12/12 01:19:04;;;;;;;11.18;7.93;;;3.50;99.90;;;;;;5064174;28;20053;-51
2020/12/12 01:21:31;;;;;;;13.57;8.35;;;3.50;99.90;;;;;;5064293;28;20048;-50
2020/12/12 01:23:57;;;;;;;7.65;6.05;;;3.50;99.90;;;;;;5074891;28;20047;-54
2020/12/12 01:26:24;;;;;;;8.68;5.68;;;3.50;99.90;;;;;;5066357;28;20470;-50
2020/12/12 01:28:50;;;;;;;13.10;7.00;;;3.50;99.90;;;;;;5064817;28;20045;-50
2020/12/12 01:31:17;;;;;;;12.80;7.47;;;3.50;99.90;;;;;;5064560;28;20053;-50
2020/12/12 01:33:43;;;;;;;7.07;5.40;;;3.60;99.90;;;;;;5059620;28;20081;-50
2020/12/12 01:36:11;;;;;;;11.93;7.10;;;3.60;99.90;;;;;;5067464;28;20052;-51
2020/12/12 01:38:37;;;;;;;10.38;7.25;;;3.60;99.90;;;;;;5049662;28;20064;-52
2020/12/12 01:41:04;;;;;;;8.77;6.85;;;3.60;99.90;;;;;;5064475;28;20048;-50
2020/12/12 01:43:31;;;;;;;9.93;7.07;;;3.50;99.90;;;;;;5064137;28;20040;-51
2020/12/12 01:45:57;;;;;;;11.30;7.32;;;3.50;99.90;;;;;;5055012;28;20045;-51
2020/12/12 01:48:25;;;;;;;12.07;8.13;;;3.50;99.90;;;;;;5065193;28;20040;-50
2020/12/12 01:50:51;;;;;;;88.57;14.07;;;3.50;99.90;;;;;;5066392;28;20056;-53
2020/12/12 01:53:19;;;;;;;20.13;10.07;;;3.40;99.90;;;;;;5068301;28;20476;-51
2020/12/12 01:55:47;;;;;;;10.98;7.60;;;3.40;99.90;;;;;;5056657;28;20075;-50
2020/12/12 01:58:15;;;;;;;14.20;8.20;;;3.40;99.90;;;;;;5067226;28;20060;-51
2020/12/12 02:00:42;;;;;;;12.73;9.23;;;3.40;99.90;;;;;;5068063;28;20053;-50
2020/12/12 02:03:12;;;;;;;19.75;11.32;;;3.40;99.90;;;;;;5076445;28;20113;-50
2020/12/12 02:05:45;;;;;;;16.60;10.25;;;3.40;99.90;;;;;;5066972;28;20048;-50
2020/12/12 02:08:18;;;;;;;17.27;9.10;;;3.30;99.90;;;;;;5075272;28;20041;-50
2020/12/12 02:10:47;;;;;;;13.75;8.20;;;3.30;99.90;;;;;;5068764;28;20045;-50
2020/12/12 02:13:16;;;;;;;19.05;10.63;;;3.30;99.90;;;;;;5073357;28;20106;-50
2020/12/12 02:15:43;;;;;;;13.57;10.07;;;3.30;99.90;;;;;;5073811;28;20067;-50
2020/12/12 02:18:20;;;;;;;20.23;11.32;;;3.30;99.90;;;;;;5070560;28;20118;-50
2020/12/12 02:20:56;;;;;;;14.30;10.05;;;3.20;99.90;;;;;;5074239;28;20123;-50
2020/12/12 02:23:23;;;;;;;16.92;9.98;;;3.20;99.90;;;;;;5070531;28;20397;-50
2020/12/12 02:25:50;;;;;;;20.88;11.32;;;3.20;99.90;;;;;;5073827;28;20105;-50
2020/12/12 02:28:23;;;;;;;20.88;11.45;;;3.30;99.90;;;;;;5069217;28;20048;-51
2020/12/12 02:30:49;;;;;;;16.30;10.63;;;3.20;99.90;;;;;;5056476;28;20059;-50
2020/12/12 02:33:17;;;;;;;23.90;9.90;;;3.20;99.90;;;;;;5071369;28;20290;-51
2020/12/12 02:35:44;;;;;;;27.92;13.98;;;3.30;99.90;;;;;;5071733;28;20060;-53
2020/12/12 02:38:11;;;;;;;14.25;8.88;;;3.20;99.90;;;;;;5068468;28;20048;-50
2020/12/12 02:40:38;;;;;;;13.80;8.50;;;3.20;99.90;;;;;;5061049;28;20060;-51
2020/12/12 02:43:13;;;;;;;13.95;9.15;;;3.30;99.90;;;;;;5074969;28;20047;-50
2020/12/12 02:45:43;;;;;;;10.05;7.90;;;3.30;99.90;;;;;;5070281;28;20052;-52
2020/12/12 02:48:10;;;;;;;18.25;10.02;;;3.40;99.90;;;;;;5074452;28;20040;-50
2020/12/12 02:50:36;;;;;;;16.75;9.55;;;3.20;99.90;;;;;;5068683;28;20060;-50
2020/12/12 02:53:03;;;;;;;15.82;7.90;;;3.30;99.90;;;;;;5074158;28;20063;-50
2020/12/12 02:55:30;;;;;;;13.93;9.98;;;3.40;99.90;;;;;;5070795;28;20040;-50
2020/12/12 02:57:56;;;;;;;13.82;9.32;;;3.30;99.90;;;;;;5072308;28;20056;-51
2020/12/12 03:00:25;;;;;;;8.02;7.13;;;3.30;99.90;;;;;;5071407;28;20123;-50
2020/12/12 03:02:52;;;;;;;13.38;8.38;;;3.30;99.90;;;;;;5074232;28;20036;-50
2020/12/12 03:05:19;;;;;;;10.90;7.43;;;3.30;99.90;;;;;;5071071;28;20385;-50
2020/12/12 03:07:46;;;;;;;8.35;7.10;;;3.30;99.90;;;;;;5070191;28;20060;-50
2020/12/12 03:10:13;;;;;;;10.40;6.95;;;3.30;99.90;;;;;;5053577;28;20390;-50
2020/12/12 03:12:39;;;;;;;11.43;8.63;;;3.30;99.90;;;;;;5069025;28;20424;-51
2020/12/12 03:15:08;;;;;;;12.55;9.10;;;3.30;99.90;;;;;;5061052;28;20056;-50
2020/12/12 03:17:35;;;;;;;14.00;9.13;;;3.20;99.90;;;;;;5069511;28;20056;-50
2020/12/12 03:20:05;;;;;;;18.70;9.70;;;3.30;99.90;;;;;;5070853;28;20041;-50
2020/12/12 03:22:33;;;;;;;13.63;9.63;;;3.30;99.90;;;;;;5072983;28;20048;-50
2020/12/12 03:25:00;;;;;;;13.18;8.20;;;3.30;99.90;;;;;;5076617;28;20048;-51
2020/12/12 03:27:27;;;;;;;13.57;7.38;;;3.30;99.90;;;;;;5070019;28;20052;-50
2020/12/12 03:29:53;;;;;;;14.23;9.18;;;3.30;99.90;;;;;;5069309;28;20469;-51
2020/12/12 03:32:29;;;;;;;15.82;8.93;;;3.30;99.90;;;;;;5071259;28;20511;-51
2020/12/12 03:34:56;;;;;;;15.65;9.82;;;3.30;99.90;;;;;;5069910;28;20457;-50
2020/12/12 03:37:24;;;;;;;20.08;11.93;;;3.30;99.90;;;;;;5068642;28;20051;-50
2020/12/12 03:39:51;;;;;;;18.48;11.15;;;3.30;99.90;;;;;;5067498;28;20045;-51
2020/12/12 03:42:17;;;;;;;12.35;7.97;;;3.30;99.90;;;;;;5071262;28;20048;-50
2020/12/12 03:44:44;;;;;;;14.98;7.65;;;3.30;99.90;;;;;;5065788;28;20049;-51
2020/12/12 03:47:11;;;;;;;8.60;6.65;;;3.20;99.90;;;;;;5068970;28;20708;-50
2020/12/12 03:49:38;;;;;;;6.38;5.78;;;3.30;99.90;;;;;;5060393;28;20041;-50
2020/12/12 03:52:04;;;;;;;11.65;7.43;;;3.30;99.90;;;;;;5068788;28;20044;-50
2020/12/12 03:54:31;;;;;;;10.73;8.80;;;3.30;99.90;;;;;;5077902;28;20040;-50
2020/12/12 03:56:58;;;;;;;7.72;5.55;;;3.30;99.90;;;;;;5068420;28;20044;-50
2020/12/12 03:59:24;;;;;;;8.10;5.72;;;3.30;99.90;;;;;;5072031;28;20045;-50
2020/12/12 04:01:51;;;;;;;9.10;7.00;;;3.30;99.90;;;;;;5065537;28;20120;-50
2020/12/12 04:04:17;;;;;;;7.20;6.47;;;3.40;99.90;;;;;;5060711;28;20499;-50
2020/12/12 04:06:44;;;;;;;16.23;7.55;;;3.40;99.90;;;;;;5069755;28;20040;-50
2020/12/12 04:09:11;;;;;;;12.52;8.07;;;3.30;99.90;;;;;;5063523;28;20491;-50
2020/12/12 04:11:37;;;;;;;10.52;7.32;;;3.30;99.90;;;;;;5064211;28;20871;-50
2020/12/12 04:14:04;;;;;;;8.70;6.18;;;3.30;99.90;;;;;;5067963;28;20069;-52
2020/12/12 04:16:30;;;;;;;13.73;7.32;;;3.40;99.90;;;;;;5072951;28;20436;-50
2020/12/12 04:18:57;;;;;;;14.23;8.20;;;3.40;99.90;;;;;;5069018;28;20544;-50
2020/12/12 04:21:24;;;;;;;7.72;6.15;;;3.30;99.90;;;;;;5062195;28;20056;-51
2020/12/12 04:23:51;;;;;;;11.80;7.05;;;3.30;99.90;;;;;;5066713;28;20053;-50
2020/12/12 04:26:17;;;;;;;7.18;5.13;;;3.30;99.90;;;;;;5069939;28;20037;-52
2020/12/12 04:28:44;;;;;;;6.30;4.45;;;3.40;99.90;;;;;;5076483;28;20508;-51
2020/12/12 04:31:11;;;;;;;2.90;2.17;;;3.40;99.90;;;;;;5078733;28;20447;-50
2020/12/12 04:33:38;;;;;;;5.05;3.22;;;3.40;99.90;;;;;;5067275;28;20567;-51
2020/12/12 04:36:05;;;;;;;7.50;4.13;;;3.40;99.90;;;;;;5078419;28;20053;-52
2020/12/12 04:38:34;;;;;;;13.20;8.20;;;3.40;99.90;;;;;;5069175;28;20052;-50
2020/12/12 04:41:09;;;;;;;26.73;11.10;;;3.30;99.90;;;;;;5068336;28;20052;-51
2020/12/12 04:43:39;;;;;;;17.52;8.82;;;3.30;99.90;;;;;;5076902;28;20052;-50
2020/12/12 04:46:06;;;;;;;14.63;8.10;;;3.30;99.90;;;;;;5065514;28;20433;-50
2020/12/12 04:48:33;;;;;;;57.63;12.57;;;3.30;99.90;;;;;;5057293;28;20397;-50
2020/12/12 04:51:00;;;;;;;74.22;12.93;;;3.30;99.90;;;;;;5054638;28;20055;-51
2020/12/12 04:53:26;;;;;;;22.63;10.55;;;3.20;99.90;;;;;;5068012;28;20052;-50
2020/12/12 04:55:54;;;;;;;16.52;8.43;;;3.20;99.90;;;;;;5064406;28;20059;-50
2020/12/12 04:58:26;;;;;;;10.30;7.35;;;3.20;99.90;;;;;;5064386;28;20488;-50
2020/12/12 05:00:54;;;;;;;15.25;9.73;;;3.20;99.90;;;;;;5069399;28;20044;-50
2020/12/12 05:03:23;;;;;;;12.90;8.32;;;3.20;99.90;;;;;;5067429;28;20052;-50
2020/12/12 05:05:50;;;;;;;7.43;5.95;;;3.30;99.90;;;;;;5053627;28;20067;-51
2020/12/12 05:08:17;;;;;;;7.50;5.15;;;3.30;99.90;;;;;;5064532;28;20052;-50
2020/12/12 05:10:44;;;;;;;6.55;5.47;;;3.30;99.90;;;;;;5060328;28;20044;-51
2020/12/12 05:13:19;;;;;;;13.60;7.20;;;3.30;99.90;;;;;;5075027;28;20063;-50
2020/12/12 05:15:47;;;;;;;9.82;7.00;;;3.30;99.90;;;;;;5079265;28;20044;-50
2020/12/12 05:18:14;;;;;;;8.25;6.97;;;3.40;99.90;;;;;;5063737;28;20044;-50
2020/12/12 05:20:41;;;;;;;10.43;8.25;;;3.40;99.90;;;;;;5060973;28;20045;-50
2020/12/12 05:23:24;;;;;;;8.35;6.07;;;3.40;99.90;;;;;;5076801;28;20044;-51
2020/12/12 05:25:52;;;;;;;9.30;5.80;;;3.50;99.90;;;;;;5065601;28;20044;-50
2020/12/12 05:28:21;;;;;;;3.60;3.30;;;3.30;99.90;;;;;;5063743;28;20049;-50
2020/12/12 05:30:49;;;;;;;10.75;5.05;;;3.40;99.90;;;;;;5068295;28;20052;-51
2020/12/12 05:33:25;;;;;;;9.00;5.35;;;3.40;99.90;;;;;;5070610;28;20067;-50
2020/12/12 05:35:53;;;;;;;6.60;4.65;;;3.40;99.90;;;;;;5070750;28;20083;-50
2020/12/12 05:38:20;;;;;;;3.30;3.00;;;3.40;99.90;;;;;;5071250;28;20059;-51
2020/12/12 05:40:55;;;;;;;2.08;1.63;;;3.40;99.90;;;;;;5082241;28;20723;-50
2020/12/12 05:43:35;;;;;;;3.20;1.38;;;3.40;99.90;;;;;;5070384;28;20037;-50
2020/12/12 05:46:03;;;;;;;2.15;1.48;;;3.50;99.90;;;;;;5076430;28;20060;-50
2020/12/12 05:48:30;;;;;;;5.15;1.45;;;3.40;99.90;;;;;;5074737;28;20045;-50
2020/12/12 05:50:56;;;;;;;2.33;1.73;;;3.40;99.90;;;;;;5079299;28;20056;-50
2020/12/12 05:53:23;;;;;;;5.57;2.70;;;3.40;99.90;;;;;;5072162;28;20041;-50
2020/12/12 05:55:54;;;;;;;5.55;3.63;;;3.40;99.90;;;;;;5078262;28;20064;-50
2020/12/12 05:58:21;;;;;;;15.45;8.07;;;3.40;99.90;;;;;;5075478;28;20044;-50
2020/12/12 06:00:48;;;;;;;13.00;8.18;;;3.40;99.90;;;;;;5072968;28;20047;-50
2020/12/12 06:03:30;;;;;;;14.10;8.95;;;3.40;99.90;;;;;;5067172;28;20059;-50
2020/12/12 06:06:03;;;;;;;13.60;9.15;;;3.30;99.90;;;;;;5075118;28;20059;-50
2020/12/12 06:08:38;;;;;;;17.33;9.48;;;3.30;99.90;;;;;;5074110;28;20044;-51
2020/12/12 06:11:07;;;;;;;15.27;9.35;;;3.30;99.90;;;;;;5074908;28;20425;-52
2020/12/12 06:13:36;;;;;;;21.17;10.80;;;3.30;99.90;;;;;;5079455;28;20071;-50
2020/12/12 06:16:05;;;;;;;35.80;10.90;;;3.30;99.90;;;;;;5072478;28;20055;-50
2020/12/12 06:19:08;;;;;;;83.47;14.30;;;3.20;99.90;;;;;;5071901;28;21622;-50
2020/12/12 06:21:36;;;;;;;20.05;10.20;;;3.20;99.90;;;;;;5033155;28;20049;-50
2020/12/12 06:24:10;;;;;;;36.33;11.10;;;3.20;99.90;;;;;;5075774;28;20500;-50
2020/12/12 06:26:49;;;;;;;32.92;10.65;;;3.10;99.90;;;;;;5065385;28;20502;-50
2020/12/12 06:29:17;;;;;;;15.15;9.93;;;3.10;99.90;;;;;;5070296;28;20044;-50
2020/12/12 06:31:44;;;;;;;12.57;7.65;;;3.10;99.90;;;;;;5074264;28;20047;-50
2020/12/12 06:34:11;;;;;;;13.32;8.85;;;3.10;99.90;;;;;;5080301;28;20044;-54
2020/12/12 06:36:45;;;;;;;13.65;9.30;;;3.20;99.90;;;;;;5070239;28;20045;-50
2020/12/12 06:39:18;;;;;;;12.60;9.05;;;3.20;99.90;;;;;;5071870;28;20052;-50
2020/12/12 06:41:45;;;;;;;13.43;8.40;;;3.10;99.90;;;;;;5071902;28;20048;-50
2020/12/12 06:44:12;;;;;;;12.65;8.40;;;3.20;99.90;;;;;;5072505;28;20481;-50
2020/12/12 06:46:52;;;;;;;12.00;9.27;;;3.20;99.90;;;;;;5062330;28;20466;-50
2020/12/12 06:49:21;;;;;;;11.55;8.93;;;3.20;99.90;;;;;;5068466;28;20138;-50
2020/12/12 06:51:50;;;;;;;10.98;6.63;;;3.30;99.90;;;;;;5078977;28;20052;-50
2020/12/12 06:54:17;;;;;;;17.75;7.22;;;3.30;99.90;;;;;;5076001;28;20068;-50
2020/12/12 06:56:44;;;;;;;10.52;6.60;;;3.30;99.90;;;;;;5072540;28;20059;-51
2020/12/12 06:59:37;;;;;;;13.50;8.32;;;3.30;99.90;;;;;;5069991;28;20420;-50
2020/12/12 07:02:07;;;;;;;9.93;7.05;;;3.30;99.90;;;;;;5060047;28;20041;-50
2020/12/12 07:04:36;;;;;;;10.45;5.88;;;3.30;99.90;;;;;;5067772;28;20048;-48
2020/12/12 07:07:07;;;;;;;9.27;6.32;;;3.30;99.90;;;;;;5071684;28;20067;-50
2020/12/12 07:09:36;;;;;;;11.90;6.00;;;3.30;99.90;;;;;;5073306;28;20777;-49
2020/12/12 07:12:04;;;;;;;6.20;5.57;;;3.30;99.90;;;;;;5069413;28;20041;-50
2020/12/12 07:14:30;;;;;;;10.05;7.85;;;3.40;99.90;;;;;;5069218;28;20107;-49
2020/12/12 07:16:59;;;;;;;15.80;8.25;;;3.40;99.90;;;;;;5069541;28;20473;-49
2020/12/12 07:19:35;;;;;;;9.05;5.53;;;3.40;99.90;;;;;;5072972;28;20043;-49
2020/12/12 07:22:05;;;;;;;6.80;5.90;;;3.40;99.90;;;;;;5070586;28;20048;-50
2020/12/12 07:24:32;;;;;;;7.28;4.65;;;3.40;99.90;;;;;;5063917;28;20081;-49
2020/12/12 07:27:00;;;;;;;7.50;4.13;;;3.40;99.90;;;;;;5070432;28;20397;-50
2020/12/12 07:29:28;;;;;;;7.32;4.38;;;3.40;99.90;;;;;;5069393;28;20041;-50
2020/12/12 07:31:55;;;;;;;8.93;4.40;;;3.40;99.90;;;;;;5073825;28;20055;-49
2020/12/12 07:34:23;;;;;;;8.32;3.78;;;3.40;99.90;;;;;;5069189;28;20049;-49
2020/12/12 07:37:04;;;;;;;4.13;3.22;;;3.50;99.90;;;;;;5071383;28;20496;-50
2020/12/12 07:39:33;;;;;;;3.92;3.15;;;3.50;99.90;;;;;;5068809;28;20044;-49
2020/12/12 07:42:02;;;;;;;2.28;2.08;;;3.60;99.90;;;;;;5069118;28;20457;-50
2020/12/12 07:44:32;;;;;;;4.53;2.85;;;3.50;99.90;;;;;;5067448;28;20048;-49
2020/12/12 07:47:04;;;;;;;4.93;3.08;;;3.50;99.90;;;;;;5062221;28;20478;-49
2020/12/12 07:49:35;;;;;;;2.47;2.28;;;3.50;99.90;;;;;;5057373;28;20044;-50
2020/12/12 07:52:11;;;;;;;6.03;1.70;;;3.60;99.90;;;;;;5067859;28;20062;-50
2020/12/12 07:54:53;;;;;;;4.35;2.95;;;3.60;99.90;;;;;;5072293;28;20052;-50
2020/12/12 07:57:20;;;;;;;8.53;6.20;;;3.60;99.90;;;;;;5069831;28;20052;-49
2020/12/12 07:59:47;;;;;;;14.30;7.80;;;3.60;99.90;;;;;;5069044;28;20055;-50
2020/12/12 08:02:14;;;;;;;28.05;17.73;;;3.70;99.90;;;;;;5071505;28;20539;-50
2020/12/12 08:04:41;;;;;;;28.77;18.45;;;3.70;99.90;;;;;;5068449;28;20493;-49
2020/12/12 08:07:12;;;;;;;33.38;20.90;;;3.70;99.90;;;;;;5069838;28;20191;-49
2020/12/12 08:09:47;;;;;;;39.28;24.70;;;3.70;99.90;;;;;;5053726;28;20049;-49
2020/12/12 08:12:22;;;;;;;24.48;15.02;;;3.70;99.90;;;;;;5054471;28;20405;-50
2020/12/12 08:14:49;;;;;;;19.10;12.32;;;3.80;99.90;;;;;;5067090;28;20057;-49
2020/12/12 08:17:16;;;;;;;22.60;14.57;;;3.80;99.90;;;;;;5068915;28;20489;-49
2020/12/12 08:19:47;;;;;;;20.75;14.50;;;3.80;99.90;;;;;;5070316;28;20079;-50
2020/12/12 08:22:23;;;;;;;23.98;12.60;;;3.80;99.90;;;;;;5061403;28;20451;-50
2020/12/12 08:24:50;;;;;;;23.90;15.07;;;3.90;99.90;;;;;;5072126;28;20048;-50
2020/12/12 08:27:26;;;;;;;9.05;7.53;;;3.80;99.90;;;;;;5068819;28;20055;-50
2020/12/12 08:29:59;;;;;;;10.07;7.38;;;3.80;99.90;;;;;;5057414;28;20052;-49
2020/12/12 08:32:40;;;;;;;11.40;6.72;;;3.70;99.90;;;;;;5066385;28;20036;-49
2020/12/12 08:35:14;;;;;;;8.07;6.57;;;3.80;99.90;;;;;;5059945;28;20424;-50
2020/12/12 08:37:50;;;;;;;6.20;5.60;;;3.90;99.90;;;;;;5068019;28;20056;-49
2020/12/12 08:40:16;;;;;;;7.85;3.78;;;3.90;99.90;;;;;;5070401;28;20511;-49
2020/12/12 08:42:58;;;;;;;5.38;4.50;;;3.90;99.90;;;;;;5069789;28;20052;-50
2020/12/12 08:45:27;;;;;;;6.82;5.50;;;4.00;99.90;;;;;;5065988;28;20092;-49
2020/12/12 08:48:06;;;;;;;5.00;3.45;;;4.00;99.90;;;;;;5056715;28;20048;-49
2020/12/12 08:50:54;;;;;;;2.22;2.03;;;4.00;99.90;;;;;;5069446;28;20465;-49
2020/12/12 08:53:27;;;;;;;2.90;2.17;;;4.10;99.90;;;;;;5067966;28;20048;-50
2020/12/12 08:56:20;;;;;;;4.70;3.63;;;4.20;99.90;;;;;;5066310;28;20044;-50
2020/12/12 08:58:57;;;;;;;7.80;3.90;;;4.20;99.90;;;;;;5049288;28;20062;-51
2020/12/12 09:01:43;;;;;;;7.03;3.30;;;4.30;99.90;;;;;;5069793;28;20043;-50
2020/12/12 09:04:12;;;;;;;2.20;2.00;;;4.40;99.90;;;;;;5068941;28;20053;-53
2020/12/12 09:06:48;;;;;;;3.10;2.05;;;4.40;99.90;;;;;;5063678;28;20052;-54
2020/12/12 09:09:23;;;;;;;1.92;1.20;;;4.50;99.90;;;;;;5068768;28;20071;-50
2020/12/12 09:12:10;;;;;;;1.75;1.15;;;4.60;99.90;;;;;;5068032;28;20485;-51
2020/12/12 09:14:43;;;;;;;1.90;1.45;;;4.60;99.90;;;;;;5070809;28;20083;-52
2020/12/12 09:17:14;;;;;;;1.83;1.00;;;4.70;99.90;;;;;;5065535;28;20083;-51
2020/12/12 09:19:41;;;;;;;1.13;0.70;;;4.70;99.90;;;;;;5060203;28;20047;-53
2020/12/12 09:22:11;;;;;;;7.03;1.30;;;4.70;99.90;;;;;;5068681;28;20057;-50
2020/12/12 09:24:38;;;;;;;2.65;0.90;;;4.90;99.90;;;;;;5067963;28;20109;-49
2020/12/12 09:27:04;;;;;;;1.58;0.50;;;5.00;99.90;;;;;;5070927;28;20437;-53
2020/12/12 09:29:31;;;;;;;0.75;0.65;;;5.00;99.90;;;;;;5068524;28;20052;-50
2020/12/12 09:31:58;;;;;;;1.58;0.82;;;5.00;99.90;;;;;;5070990;28;20060;-51
2020/12/12 09:34:25;;;;;;;1.02;0.85;;;5.10;99.90;;;;;;5066756;28;20052;-50
2020/12/12 09:36:52;;;;;;;0.80;0.73;;;5.20;99.90;;;;;;5068944;28;20048;-50
2020/12/12 09:39:19;;;;;;;3.20;1.05;;;5.20;99.90;;;;;;5069257;28;20044;-50
2020/12/12 09:41:46;;;;;;;1.77;0.80;;;5.20;99.90;;;;;;5068107;28;20045;-51
2020/12/12 09:44:13;;;;;;;2.15;1.52;;;5.30;99.90;;;;;;5058064;28;20056;-50
2020/12/12 09:46:39;;;;;;;3.08;2.05;;;5.30;99.90;;;;;;5062735;28;20040;-54
2020/12/12 09:49:07;;;;;;;2.72;0.95;;;5.50;99.90;;;;;;5071830;28;20053;-51
2020/12/12 09:51:34;;;;;;;2.90;2.60;;;5.60;99.90;;;;;;5068003;28;20048;-52
2020/12/12 09:54:00;;;;;;;3.28;1.40;;;5.50;99.90;;;;;;5057268;28;20462;-50
2020/12/12 09:56:27;;;;;;;2.63;2.38;;;5.60;99.90;;;;;;5067433;28;20421;-53
2020/12/12 09:58:54;;;;;;;4.03;2.25;;;5.60;99.90;;;;;;5068871;28;20052;-51
2020/12/12 10:01:20;;;;;;;2.75;2.47;;;5.60;99.90;;;;;;5065097;28;20044;-54
2020/12/12 10:03:48;;;;;;;2.53;1.30;;;5.70;99.90;;;;;;5067293;28;20071;-53
2020/12/12 10:06:14;;;;;;;2.20;1.38;;;5.70;99.90;;;;;;5070022;28;20059;-52
2020/12/12 10:08:40;;;;;;;1.83;1.50;;;5.80;99.90;;;;;;5069534;28;20721;-51
2020/12/12 10:11:07;;;;;;;5.88;2.85;;;5.80;99.90;;;;;;5054513;28;20058;-49
2020/12/12 10:13:35;;;;;;;3.00;2.63;;;5.80;99.90;;;;;;5067269;28;20520;-50
2020/12/12 10:16:02;;;;;;;3.28;1.00;;;5.80;99.90;;;;;;5069095;28;20110;-50
2020/12/12 10:18:28;;;;;;;1.02;0.90;;;5.90;99.90;;;;;;5064437;28;21522;-50
2020/12/12 10:20:55;;;;;;;5.40;0.60;;;6.00;99.90;;;;;;5054284;28;20061;-51
2020/12/12 10:23:21;;;;;;;1.83;0.70;;;6.00;99.90;;;;;;5071685;28;20055;-50
2020/12/12 10:25:47;;;;;;;2.45;1.50;;;6.10;99.90;;;;;;5070572;28;20053;-54
2020/12/12 10:28:14;;;;;;;5.50;2.20;;;6.10;99.90;;;;;;5073818;28;20051;-53
2020/12/12 10:30:41;;;;;;;2.40;1.55;;;6.10;99.90;;;;;;5070335;28;20492;-50
2020/12/12 10:33:07;;;;;;;2.40;0.73;;;6.20;99.90;;;;;;5073255;28;20051;-49
2020/12/12 10:35:35;;;;;;;0.90;0.55;;;6.30;99.90;;;;;;5069572;28;20055;-54
2020/12/12 10:38:02;;;;;;;1.77;0.60;;;6.30;99.90;;;;;;5070068;28;20465;-51
2020/12/12 10:42:55;;;;;;;0.30;0.30;;;6.50;99.90;;;;;;5071658;28;20059;-50
2020/12/12 10:45:21;;;;;;;0.70;0.70;;;6.50;99.90;;;;;;5067150;28;20473;-50
2020/12/12 10:47:48;;;;;;;0.95;0.50;;;6.70;99.90;;;;;;5065924;28;20052;-51
2020/12/12 10:50:14;;;;;;;1.10;0.75;;;6.70;99.90;;;;;;5071339;28;20048;-50
2020/12/12 10:52:42;;;;;;;1.48;0.60;;;6.90;99.90;;;;;;5072433;28;20423;-53
2020/12/12 10:55:08;;;;;;;5.70;2.35;;;6.90;99.90;;;;;;5069217;28;20056;-50
2020/12/12 10:57:35;;;;;;;1.92;0.70;;;7.00;99.90;;;;;;5069568;28;20055;-50
2020/12/12 11:00:04;;;;;;;1.20;0.73;;;7.00;99.90;;;;;;5069598;28;20041;-49
2020/12/12 11:02:33;;;;;;;6.85;1.10;;;7.00;99.90;;;;;;5069365;28;20044;-49
2020/12/12 11:05:00;;;;;;;0.70;0.70;;;7.00;99.90;;;;;;5077228;28;20090;-50
2020/12/12 11:07:27;;;;;;;5.65;1.55;;;7.00;99.90;;;;;;5069113;28;20043;-50
2020/12/12 11:09:53;;;;;;;2.63;0.60;;;7.00;99.90;;;;;;5068134;28;20469;-49
2020/12/12 11:12:20;;;;;;;2.38;1.10;;;7.00;99.90;;;;;;5070588;28;20044;-49
2020/12/12 11:14:48;;;;;;;1.00;0.80;;;7.00;99.90;;;;;;5078078;28;20056;-50
2020/12/12 11:17:16;;;;;;;3.13;1.40;;;7.00;99.90;;;;;;5070628;28;20060;-49
2020/12/12 11:19:43;;;;;;;13.77;8.35;;;7.00;99.90;;;;;;5070969;28;20052;-50
2020/12/12 11:22:10;;;;;;;5.28;3.17;;;7.10;99.90;;;;;;5063301;28;20133;-49
2020/12/12 11:24:36;;;;;;;1.20;1.10;;;7.10;99.90;;;;;;5071088;28;20052;-50
2020/12/12 11:27:03;;;;;;;3.05;1.63;;;7.20;99.90;;;;;;5068144;28;20044;-50
2020/12/12 11:29:29;;;;;;;2.35;0.82;;;7.20;99.90;;;;;;5070112;28;20060;-50
2020/12/12 11:31:56;;;;;;;1.30;0.68;;;7.20;99.90;;;;;;5064706;28;20056;-49
2020/12/12 11:34:42;;;;;;;11.90;5.80;;;7.30;99.90;;;;;;5069599;28;20066;-49
2020/12/12 11:37:39;;;;;;;1.63;0.90;;;7.30;99.90;;;;;;5070415;28;20053;-51
2020/12/12 11:40:18;;;;;;;0.60;0.55;;;7.20;99.90;;;;;;5069668;28;20354;-49
2020/12/12 11:48:13;;;;;;;1.48;0.70;;;7.30;99.90;;;;;;5045596;28;20568;-49
2020/12/12 11:50:40;;;;;;;0.88;0.73;;;7.40;99.90;;;;;;5071192;28;20052;-49
2020/12/12 11:53:06;;;;;;;1.20;1.00;;;7.40;99.90;;;;;;5070444;28;20124;-50
2020/12/12 11:55:33;;;;;;;1.70;0.60;;;7.50;99.90;;;;;;5061844;28;20053;-50
2020/12/12 11:57:59;;;;;;;2.17;0.80;;;7.50;99.90;;;;;;5069912;28;20048;-50
2020/12/12 12:00:26;;;;;;;1.35;1.25;;;7.60;99.90;;;;;;5074078;28;20059;-49
2020/12/12 12:02:53;;;;;;;2.85;1.77;;;7.60;99.90;;;;;;5075505;28;20040;-49
2020/12/12 12:05:28;;;;;;;1.33;0.88;;;7.60;99.90;;;;;;5067965;28;20044;-51
2020/12/12 12:07:55;;;;;;;2.22;1.98;;;7.60;99.90;;;;;;5078650;28;20044;-50
2020/12/12 12:12:48;;;;;;;0.88;0.70;;;7.70;99.90;;;;;;5072067;28;20040;-50
2020/12/12 12:15:14;;;;;;;5.07;1.15;;;7.70;99.90;;;;;;5070165;28;20059;-50
2020/12/12 12:17:45;;;;;;;0.70;0.50;;;7.70;99.90;;;;;;5074797;28;20094;-50
2020/12/12 12:20:12;;;;;;;2.05;1.10;;;7.70;99.90;;;;;;5075100;28;20060;-50
2020/12/12 12:22:38;;;;;;;0.82;0.50;;;7.70;99.90;;;;;;5075905;28;20056;-50
2020/12/12 12:25:06;;;;;;;2.00;0.68;;;7.70;99.90;;;;;;5060079;28;20089;-50
2020/12/12 12:27:33;;;;;;;1.80;0.60;;;7.80;99.90;;;;;;5062923;28;20366;-50
2020/12/12 12:29:59;;;;;;;2.53;0.60;;;7.80;99.90;;;;;;5067899;28;20393;-49
2020/12/12 12:32:26;;;;;;;0.73;0.57;;;7.80;99.90;;;;;;5066794;28;20056;-50
2020/12/12 12:34:53;;;;;;;0.70;0.63;;;7.90;99.90;;;;;;5056402;28;20469;-50
2020/12/12 12:37:19;;;;;;;22.30;12.30;;;7.90;99.90;;;;;;5069094;28;20048;-50
2020/12/12 12:39:46;;;;;;;3.63;1.75;;;7.80;99.90;;;;;;5071136;28;20405;-49
2020/12/12 12:42:12;;;;;;;4.68;0.77;;;7.70;99.90;;;;;;5061549;28;20041;-49
2020/12/12 12:44:39;;;;;;;4.40;3.53;;;7.80;99.90;;;;;;5057761;28;20059;-49
2020/12/12 12:47:06;;;;;;;6.40;2.67;;;7.80;99.90;;;;;;5071685;28;20098;-49
2020/12/12 12:49:32;;;;;;;2.88;1.42;;;7.80;99.90;;;;;;5070050;28;20084;-49
2020/12/12 12:51:59;;;;;;;4.60;2.72;;;7.90;99.90;;;;;;5066445;28;20393;-49
2020/12/12 12:54:25;;;;;;;7.78;3.75;;;7.90;99.90;;;;;;5068391;28;20053;-49
2020/12/12 12:56:52;;;;;;;7.32;3.22;;;8.00;99.90;;;;;;5072285;28;20051;-50
2020/12/12 12:59:18;;;;;;;4.90;2.60;;;8.00;99.90;;;;;;5067613;28;20053;-52
2020/12/12 13:01:45;;;;;;;7.10;2.35;;;8.00;99.90;;;;;;5070418;28;20045;-50
2020/12/12 13:04:12;;;;;;;4.93;2.10;;;8.10;99.90;;;;;;5063733;28;20462;-49
2020/12/12 13:06:38;;;;;;;3.33;2.38;;;8.10;99.90;;;;;;5058762;28;20048;-49
2020/12/12 13:09:25;;;;;;;4.68;2.17;;;8.10;99.90;;;;;;5070547;28;20466;-49